Time;durP1;ratioP1;P1;durP2;ratioP2;P2;SDS_P1;SDS_P2;PMS_P1;PMS_P2;Temp;Humidity;BMP_temperature;BMP_pressure;BME280_temperature;BME280_humidity;BME280_pressure;Samples;Min_cycle;Max_cycle;Signal;HPM_P1;HPM_P2
2023/03/01 11:17:16;;;;;;;4.82;2.60;;;;;;;19.15;24.85;100845.00;10539201;27;96575;-85
2023/03/01 11:28:38;;;;;;;5.38;3.03;;;;;;;19.74;23.86;100833.88;9993712;29;97964;-81
2023/03/01 11:33:57;;;;;;;5.18;2.83;;;;;;;20.44;23.33;100824.53;10332919;28;96885;-83
2023/03/01 11:39:14;;;;;;;4.70;2.67;;;;;;;20.23;22.98;100821.53;10361887;28;97003;-85
2023/03/01 11:44:22;;;;;;;4.72;2.45;;;;;;;20.13;22.47;100825.78;10368521;28;96778;-85
2023/03/01 11:49:45;;;;;;;2.97;2.42;;;;;;;19.99;22.19;100819.72;10363745;28;96939;-86
2023/03/01 11:55:03;;;;;;;4.70;2.50;;;;;;;20.49;21.25;100810.84;10360835;28;97086;-85
2023/03/01 12:00:23;;;;;;;2.17;1.80;;;;;;;20.78;20.74;100809.56;10446828;27;96942;-85
2023/03/01 12:06:13;;;;;;;2.45;1.73;;;;;;;21.38;19.51;100803.25;10469110;27;96859;-86
2023/03/01 12:11:28;;;;;;;4.07;2.10;;;;;;;20.53;20.48;100788.25;10394324;28;97498;-87
2023/03/01 12:16:49;;;;;;;5.85;2.88;;;;;;;20.36;20.52;100784.97;10479279;27;97118;-85
2023/03/01 12:22:17;;;;;;;4.57;2.75;;;;;;;20.63;20.58;100768.78;10495285;27;96871;-86
2023/03/01 12:27:37;;;;;;;3.50;2.28;;;;;;;20.08;20.32;100749.59;10467634;27;98840;-86
2023/03/01 12:32:56;;;;;;;2.80;2.13;;;;;;;21.54;19.63;100746.69;10451087;27;99293;-88
2023/03/01 12:38:15;;;;;;;3.38;2.40;;;;;;;21.84;19.95;100738.97;10465453;27;99054;-88
2023/03/01 12:43:31;;;;;;;2.00;1.42;;;;;;;22.00;18.80;100739.50;10452696;27;96816;-87
2023/03/01 12:48:49;;;;;;;2.72;1.90;;;;;;;22.83;18.54;100718.44;10455419;27;98974;-85
2023/03/01 12:53:59;;;;;;;4.00;2.53;;;;;;;23.15;18.84;100711.22;10463066;27;96814;-86
2023/03/01 12:59:13;;;;;;;4.35;2.10;;;;;;;23.52;18.25;100701.75;10454441;27;97655;-84
2023/03/01 13:04:41;;;;;;;6.70;2.25;;;;;;;23.73;17.49;100694.56;10450712;27;96950;-86
2023/03/01 13:09:55;;;;;;;3.25;2.40;;;;;;;24.45;16.54;100677.31;10455241;27;97524;-77
2023/03/01 13:14:58;;;;;;;2.75;2.08;;;;;;;22.91;17.76;100678.41;10458773;27;96947;-77
2023/03/01 13:20:03;;;;;;;3.70;2.05;;;;;;;22.18;18.41;100671.00;10455647;27;97336;-77
2023/03/01 13:25:19;;;;;;;3.45;2.22;;;;;;;22.37;18.30;100654.28;10450177;27;97005;-79
2023/03/01 13:30:42;;;;;;;3.20;2.08;;;;;;;21.63;19.01;100644.22;10463264;27;97323;-80
2023/03/01 13:35:46;;;;;;;3.50;2.00;;;;;;;21.65;19.29;100636.06;10445636;27;97397;-79
2023/03/01 13:41:01;;;;;;;2.63;2.00;;;;;;;21.26;19.46;100630.16;10457224;27;96941;-79
2023/03/01 13:46:11;;;;;;;3.78;2.00;;;;;;;21.23;19.84;100614.34;10461886;27;97172;-82
2023/03/01 13:51:15;;;;;;;3.83;2.15;;;;;;;21.65;19.00;100611.94;10460418;27;97648;-85
2023/03/01 13:56:26;;;;;;;3.20;2.30;;;;;;;21.94;18.43;100605.97;10454973;27;97120;-85
2023/03/01 14:01:31;;;;;;;3.92;2.70;;;;;;;22.79;17.94;100589.03;10458463;27;97278;-86
2023/03/01 14:06:36;;;;;;;2.90;1.85;;;;;;;23.59;17.89;100590.97;10452717;27;97382;-84
2023/03/01 14:11:56;;;;;;;2.60;1.60;;;;;;;23.66;16.84;100576.03;10456259;27;98957;-85
2023/03/01 14:17:15;;;;;;;2.80;2.00;;;;;;;24.11;16.50;100576.44;10447827;27;99031;-87
2023/03/01 14:22:22;;;;;;;3.13;2.22;;;;;;;24.98;16.35;100563.84;10466437;27;96706;-88
2023/03/01 14:27:31;;;;;;;4.78;2.45;;;;;;;24.83;16.51;100552.66;10451285;27;97038;-89
2023/03/01 14:32:37;;;;;;;4.03;2.17;;;;;;;23.82;17.03;100548.63;10443537;27;97849;-84
2023/03/01 14:37:41;;;;;;;3.72;2.28;;;;;;;23.92;17.28;100545.94;10462786;27;98564;-84
2023/03/01 14:42:48;;;;;;;5.05;2.97;;;;;;;23.45;17.97;100537.59;10463278;27;96944;-84
2023/03/01 14:47:54;;;;;;;4.80;2.75;;;;;;;23.74;17.55;100526.94;10451199;27;98969;-85
2023/03/01 14:53:02;;;;;;;4.05;3.08;;;;;;;23.57;17.06;100523.09;10464843;27;96695;-86
2023/03/01 14:58:13;;;;;;;7.15;2.90;;;;;;;23.96;17.68;100528.56;10460295;27;96847;-87
2023/03/01 15:03:27;;;;;;;6.47;3.22;;;;;;;24.20;16.95;100516.44;10458568;27;97723;-87
2023/03/01 15:08:34;;;;;;;4.33;2.63;;;;;;;23.40;17.72;100507.59;10462713;27;96826;-86
2023/03/01 15:13:46;;;;;;;4.32;3.05;;;;;;;23.44;17.04;100505.50;10464878;27;96704;-86
2023/03/01 15:18:57;;;;;;;4.43;2.33;;;;;;;23.13;16.81;100518.06;10447161;27;97039;-86
2023/03/01 15:24:33;;;;;;;3.78;2.72;;;;;;;23.53;17.08;100507.31;10422733;28;96945;-86
2023/03/01 15:29:41;;;;;;;3.78;2.60;;;;;;;22.96;17.36;100504.38;10449802;27;97111;-86
2023/03/01 15:34:51;;;;;;;3.97;2.80;;;;;;;22.05;17.23;100504.13;10454002;27;97128;-87
2023/03/01 15:39:57;;;;;;;5.60;2.67;;;;;;;20.96;17.55;100497.88;10422214;28;96812;-86
2023/03/01 15:45:14;;;;;;;5.60;2.40;;;;;;;21.81;17.33;100500.75;10421741;28;96730;-88
2023/03/01 15:50:23;;;;;;;3.00;2.15;;;;;;;21.02;18.14;100486.66;10423340;27;97796;-86
2023/03/01 15:55:30;;;;;;;5.68;3.10;;;;;;;19.58;19.09;100502.16;10425664;27;96531;-87
2023/03/01 16:00:37;;;;;;;4.47;2.90;;;;;;;20.16;19.31;100486.22;10424271;27;96669;-87
2023/03/01 16:05:52;;;;;;;3.97;2.40;;;;;;;19.86;20.12;100493.84;10455203;27;96719;-87
2023/03/01 16:10:56;;;;;;;5.05;2.33;;;;;;;19.80;20.01;100486.28;10468831;27;96818;-88
2023/03/01 16:16:04;;;;;;;4.97;3.15;;;;;;;19.50;20.13;100482.31;10469556;27;96747;-87
2023/03/01 16:21:12;;;;;;;4.35;2.75;;;;;;;19.29;20.56;100476.69;10457328;27;96780;-79
2023/03/01 16:26:15;;;;;;;5.30;2.50;;;;;;;18.90;20.50;100466.19;10456454;27;98899;-79
2023/03/01 16:31:21;;;;;;;3.90;2.35;;;;;;;18.82;21.12;100469.38;10453379;27;96779;-79
2023/03/01 16:36:27;;;;;;;4.53;2.53;;;;;;;18.37;21.81;100471.69;10465131;27;97684;-80
2023/03/01 16:41:31;;;;;;;6.30;3.03;;;;;;;17.93;22.27;100472.00;10467375;27;97176;-80
2023/03/01 16:46:36;;;;;;;6.67;3.17;;;;;;;17.26;22.96;100474.63;10455830;27;97144;-81
2023/03/01 16:51:39;;;;;;;7.60;3.30;;;;;;;16.65;24.99;100478.41;10469160;27;96724;-81
2023/03/01 16:56:42;;;;;;;5.65;3.53;;;;;;;16.22;25.37;100476.59;10461955;27;98770;-80
2023/03/01 17:01:47;;;;;;;10.52;3.85;;;;;;;16.01;26.01;100480.53;10433300;27;97070;-80
2023/03/01 17:06:51;;;;;;;7.70;4.43;;;;;;;15.26;29.75;100485.72;10452468;27;96828;-80
2023/03/01 17:11:54;;;;;;;9.95;4.70;;;;;;;14.86;32.97;100495.84;10466258;27;96806;-80
2023/03/01 17:16:59;;;;;;;10.45;5.13;;;;;;;14.46;35.27;100503.25;10456374;27;98323;-80
2023/03/01 17:22:02;;;;;;;8.98;4.55;;;;;;;14.38;34.85;100507.22;10443008;27;97303;-80
2023/03/01 17:27:06;;;;;;;6.85;4.28;;;;;;;13.95;36.87;100505.81;10453568;27;96893;-78
2023/03/01 17:32:11;;;;;;;11.13;4.95;;;;;;;13.79;37.87;100507.53;10459126;27;96955;-79
2023/03/01 17:37:14;;;;;;;8.48;4.72;;;;;;;13.67;39.01;100510.75;10463362;27;96787;-79
2023/03/01 17:42:17;;;;;;;9.15;4.93;;;;;;;13.26;40.60;100514.50;10464807;27;96802;-78
2023/03/01 17:47:22;;;;;;;10.90;4.80;;;;;;;13.12;40.94;100520.41;10452903;27;97906;-78
2023/03/01 17:52:25;;;;;;;10.60;4.55;;;;;;;12.93;41.51;100526.63;10459171;27;96746;-74
2023/03/01 17:57:29;;;;;;;11.18;5.28;;;;;;;12.74;41.82;100523.91;10459916;27;99087;-79
2023/03/01 18:02:33;;;;;;;9.20;4.35;;;;;;;12.38;43.43;100528.97;10465414;27;96801;-79
2023/03/01 18:07:37;;;;;;;9.63;4.18;;;;;;;12.55;43.20;100539.66;10438210;27;98615;-78
2023/03/01 18:12:40;;;;;;;8.77;4.30;;;;;;;12.53;43.40;100540.69;10461443;27;98139;-78
2023/03/01 18:17:45;;;;;;;9.27;4.05;;;;;;;12.38;44.66;100544.81;10458301;27;97445;-82
2023/03/01 18:22:51;;;;;;;8.90;3.97;;;;;;;12.31;43.40;100547.75;10461866;27;98700;-79
2023/03/01 18:27:54;;;;;;;;;;;;;;;12.22;44.83;100549.00;10454437;27;96971;-79
2023/03/01 18:33:00;;;;;;;7.40;4.13;;;;;;;12.17;44.98;100547.47;10461311;27;96940;-83
2023/03/01 18:38:04;;;;;;;7.97;4.95;;;;;;;12.03;45.54;100557.75;10457780;27;98701;-88
2023/03/01 18:43:09;;;;;;;10.50;5.20;;;;;;;12.02;44.44;100564.81;10463374;27;96825;-87
2023/03/01 18:48:14;;;;;;;;;;;;;;;11.66;47.05;100568.91;10465812;27;96717;-87
2023/03/01 18:53:19;;;;;;;14.30;7.35;;;;;;;11.71;45.09;100572.22;10466314;27;96654;-88
2023/03/01 18:58:23;;;;;;;7.60;4.73;;;;;;;11.92;45.15;100583.69;10464955;27;96825;-87
2023/03/01 19:09:56;;;;;;;9.73;4.70;;;;;;;11.34;46.53;100596.47;10336224;28;97653;-88
2023/03/01 19:15:12;;;;;;;18.80;12.43;;;;;;;11.47;46.52;100612.69;10347436;28;97126;-93
2023/03/01 19:20:45;;;;;;;14.35;7.43;;;;;;;11.38;47.66;100613.03;10357776;27;97680;-92
2023/03/01 19:26:08;;;;;;;13.25;7.05;;;;;;;11.56;46.70;100616.75;10464621;27;96862;-83
2023/03/01 19:31:15;;;;;;;13.13;6.68;;;;;;;11.44;47.15;100614.59;10464986;27;97600;-82
2023/03/01 19:36:31;;;;;;;14.35;7.35;;;;;;;11.45;46.68;100613.66;10469133;27;96854;-83
2023/03/01 19:41:36;;;;;;;12.00;6.97;;;;;;;11.16;47.64;100617.38;10459024;27;98655;-79
2023/03/01 19:46:39;;;;;;;12.95;7.47;;;;;;;10.88;49.36;100622.72;10462848;27;96753;-78
2023/03/01 19:51:44;;;;;;;9.75;6.20;;;;;;;10.96;48.99;100614.53;10464862;27;98767;-78
2023/03/01 19:56:48;;;;;;;11.20;6.97;;;;;;;10.84;49.62;100613.22;10467021;27;97182;-81
2023/03/01 20:01:51;;;;;;;9.25;6.35;;;;;;;10.73;50.77;100610.06;10452288;27;97254;-81
2023/03/01 20:06:56;;;;;;;10.68;6.22;;;;;;;10.75;50.20;100613.53;10459845;27;98455;-81
2023/03/01 20:11:59;;;;;;;10.75;6.53;;;;;;;10.53;51.31;100612.53;10464100;27;96751;-81
2023/03/01 20:17:03;;;;;;;11.18;6.50;;;;;;;10.73;50.24;100610.06;10459180;27;98635;-89
2023/03/01 20:22:13;;;;;;;13.35;7.82;;;;;;;10.83;49.81;100614.13;10468902;27;96686;-91
2023/03/01 20:27:21;;;;;;;16.02;8.32;;;;;;;10.34;51.16;100621.09;10433691;27;97382;-90
2023/03/01 20:32:27;;;;;;;;;;;;;;;10.23;53.22;100619.66;10469222;27;96677;-87
2023/03/01 20:37:36;;;;;;;10.95;6.40;;;;;;;10.21;51.77;100624.13;10466190;27;97090;-91
2023/03/01 20:42:57;;;;;;;10.88;5.97;;;;;;;9.89;52.97;100615.53;10467551;27;96757;-86
2023/03/01 20:48:01;;;;;;;9.68;5.28;;;;;;;9.80;53.07;100621.06;10480730;27;99091;-85
2023/03/01 20:53:14;;;;;;;13.30;7.28;;;;;;;9.67;53.58;100627.59;10485657;27;96603;-89
2023/03/01 20:58:22;;;;;;;12.50;7.53;;;;;;;9.26;55.41;100631.44;10469747;27;97329;-92
2023/03/01 21:03:31;;;;;;;10.55;7.28;;;;;;;9.48;54.59;100634.31;10451621;27;96766;-84
2023/03/01 21:08:37;;;;;;;15.82;8.30;;;;;;;9.59;54.46;100638.34;10461380;27;98033;-81
2023/03/01 21:13:40;;;;;;;13.48;8.80;;;;;;;9.56;54.32;100641.06;10444622;27;99537;-80
2023/03/01 21:18:43;;;;;;;15.68;8.75;;;;;;;9.64;54.25;100646.09;10460834;27;97705;-79
2023/03/01 21:23:48;;;;;;;13.45;9.07;;;;;;;9.55;54.32;100647.22;10458651;27;96805;-80
2023/03/01 21:28:56;;;;;;;16.10;9.85;;;;;;;9.60;54.42;100645.34;10463463;27;96794;-79
2023/03/01 21:34:02;;;;;;;11.30;7.80;;;;;;;9.44;55.00;100656.31;10458985;27;97146;-82
2023/03/01 21:39:07;;;;;;;13.65;8.43;;;;;;;9.34;55.36;100657.47;10453399;27;97360;-82
2023/03/01 21:44:10;;;;;;;12.03;8.23;;;;;;;9.09;56.53;100662.50;10456549;27;96830;-82
2023/03/01 21:49:14;;;;;;;12.90;8.52;;;;;;;8.95;56.98;100660.25;10450803;27;96898;-82
2023/03/01 21:54:20;;;;;;;16.35;12.45;;;;;;;9.15;55.70;100657.09;10454501;27;97754;-82
2023/03/01 21:59:24;;;;;;;17.00;13.15;;;;;;;9.09;56.53;100663.38;10456404;27;98972;-82
2023/03/01 22:04:27;;;;;;;14.85;10.18;;;;;;;9.24;56.33;100671.78;10459663;27;97199;-82
2023/03/01 22:09:33;;;;;;;13.77;9.20;;;;;;;9.01;57.09;100672.38;10448990;27;97380;-84
2023/03/01 22:14:37;;;;;;;15.05;8.48;;;;;;;8.97;57.21;100662.84;10455104;27;96786;-82
2023/03/01 22:19:40;;;;;;;12.45;8.57;;;;;;;9.03;56.85;100671.41;10446172;27;98816;-83
2023/03/01 22:24:45;;;;;;;20.83;14.98;;;;;;;8.95;56.98;100673.38;10453666;27;97369;-84
2023/03/01 22:29:48;;;;;;;18.10;9.67;;;;;;;8.90;57.12;100669.16;10449882;27;96804;-87
2023/03/01 22:34:51;;;;;;;13.18;7.55;;;;;;;8.88;57.13;100671.81;10453152;27;96746;-85
2023/03/01 22:39:57;;;;;;;13.57;8.18;;;;;;;8.82;57.27;100679.00;10451452;27;96725;-84
2023/03/01 22:45:00;;;;;;;;;;;;;;;8.64;58.51;100669.81;10458757;27;97232;-84
2023/03/01 22:50:04;;;;;;;13.85;7.65;;;;;;;8.53;58.19;100673.63;10457795;27;96841;-85
2023/03/01 22:55:10;;;;;;;16.33;9.10;;;;;;;8.38;58.90;100674.84;10456843;27;96741;-85
2023/03/01 23:00:14;;;;;;;11.38;7.28;;;;;;;8.42;57.84;100673.88;10455157;27;97711;-81
2023/03/01 23:05:17;;;;;;;11.37;7.73;;;;;;;8.29;58.48;100667.19;10454921;27;96857;-79
2023/03/01 23:10:22;;;;;;;11.77;7.95;;;;;;;8.36;58.18;100678.41;10456462;27;96725;-79
2023/03/01 23:15:26;;;;;;;14.70;8.20;;;;;;;8.35;57.87;100684.53;10449445;27;97332;-79
2023/03/01 23:20:29;;;;;;;12.70;8.98;;;;;;;8.23;58.44;100690.94;10460578;27;96804;-79
2023/03/01 23:25:34;;;;;;;10.93;8.15;;;;;;;8.20;58.86;100690.16;10461031;27;97229;-80
2023/03/01 23:30:37;;;;;;;13.57;9.00;;;;;;;8.05;59.51;100683.50;10459353;27;96914;-79
2023/03/01 23:35:40;;;;;;;13.32;8.43;;;;;;;8.28;58.73;100681.22;10461308;27;96843;-79
2023/03/01 23:40:45;;;;;;;14.68;9.18;;;;;;;8.00;59.48;100690.59;10458313;27;97735;-79
2023/03/01 23:45:53;;;;;;;11.80;8.35;;;;;;;7.93;59.50;100683.75;10425445;27;96848;-79
2023/03/01 23:50:56;;;;;;;10.18;8.30;;;;;;;7.66;60.71;100697.47;10448725;27;97549;-79
2023/03/01 23:56:02;;;;;;;13.45;8.93;;;;;;;7.65;61.37;100688.72;10453065;27;96658;-78
